To NAV CANADA Home Page Login to a new session Search on AWWS site Feedback and Comments Disclaimer Vers la page française équivalente Tips FAQ What's new on the site To the Forecasts and Observations / NOTAM section To "File a Flight Plan" website Publications and other links Update of the User's profile FIC Telephone Numbers My Weather Data Folder Route Weather Data Regional Weather Data Local Weather Data To the Forecasts and Observations / NOTAM section
Request Generated 02/24/2017 at 03:39:14 UTC . Weather information available at that time is displayed.

METAR/TAF

VANCOUVER INTL/BC    (show WxCam)

METAR CYVR 240300Z VRB02KT 20SM FEW063 SCT210 BKN230 03/M00 A3018 RMK
SC2CI1CS2 SLP220=
METAR CYVR 240200Z 19004KT 30SM FEW040 FEW060 SCT220 SCT250 03/M00
A3019 RMK SC1SC1CI1CS1 CONTRAILS SLP223=
METAR CYVR 240100Z 20005KT 190V250 30SM FEW040 FEW060 SCT220 04/M00
A3020 RMK CU1SC1CI2 SC TR CONTRAILS SLP228=

TAF CYVR 240238Z 2403/2506 19005KT P6SM FEW040 SCT220 TEMPO 2403/2408
P6SM -SHRA SCT020 BKN040
FM240800 08008KT P6SM -SHRA SCT020 BKN040 TEMPO 2408/2415 2SM
-SHRASN BR BKN020 OVC040
FM241500 08010KT P6SM SCT040 BKN150
FM250000 27005KT P6SM SKC
RMK NXT FCST BY 240600Z=
Your time UTC time
Weather data provided by Environment Canada and NAV CANADA